Time;durP1;ratioP1;P1;durP2;ratioP2;P2;SDS_P1;SDS_P2;PMS_P1;PMS_P2;Temp;Humidity;BMP_temperature;BMP_pressure;BME280_temperature;BME280_humidity;BME280_pressure;Samples;Min_cycle;Max_cycle;Signal;HPM_P1;HPM_P2
2021/04/03 00:00:22;;;;;;;5.57;3.85;;;13.10;96.70;;;;;;4806699;29;20201;-75
2021/04/03 00:02:51;;;;;;;6.53;4.35;;;13.10;96.70;;;;;;4822205;29;20061;-75
2021/04/03 00:05:18;;;;;;;7.50;4.00;;;13.10;96.70;;;;;;4818179;29;20038;-75
2021/04/03 00:07:46;;;;;;;5.47;4.07;;;13.10;96.70;;;;;;4823163;29;20068;-75
2021/04/03 00:10:18;;;;;;;5.88;3.63;;;13.10;96.70;;;;;;4821647;29;20106;-75
2021/04/03 00:12:45;;;;;;;6.50;3.88;;;13.10;96.70;;;;;;4806782;29;20556;-75
2021/04/03 00:15:14;;;;;;;7.72;3.53;;;13.10;96.70;;;;;;4808810;29;20080;-75
2021/04/03 00:17:42;;;;;;;8.57;3.58;;;13.10;96.70;;;;;;4820548;29;20048;-75
2021/04/03 00:20:13;;;;;;;6.53;3.30;;;13.10;96.70;;;;;;4812600;29;20055;-75
2021/04/03 00:22:41;;;;;;;6.78;3.45;;;13.10;96.70;;;;;;4820550;29;20050;-75
2021/04/03 00:25:09;;;;;;;6.18;3.30;;;13.00;96.70;;;;;;4819915;29;20078;-76
2021/04/03 00:27:37;;;;;;;4.57;3.17;;;13.00;96.70;;;;;;4804844;29;20468;-75
2021/04/03 00:32:45;;;;;;;5.40;3.92;;;12.90;96.70;;;;;;4809089;29;20134;-75
2021/04/03 00:35:15;;;;;;;5.95;3.20;;;12.80;96.70;;;;;;4809180;29;20511;-76
2021/04/03 00:37:43;;;;;;;5.55;2.80;;;12.80;96.70;;;;;;4808968;29;20096;-75
2021/04/03 00:40:14;;;;;;;4.40;3.28;;;12.80;96.70;;;;;;4812760;29;20070;-75
2021/04/03 00:42:43;;;;;;;5.47;2.80;;;12.70;96.70;;;;;;4809846;29;20065;-76
2021/04/03 00:45:11;;;;;;;6.32;3.17;;;12.70;96.70;;;;;;4804448;29;20045;-75
2021/04/03 00:47:39;;;;;;;6.00;3.28;;;12.70;96.70;;;;;;4817854;29;20082;-76
2021/04/03 00:50:09;;;;;;;5.72;2.95;;;12.70;96.70;;;;;;4824973;29;20069;-75
2021/04/03 00:52:38;;;;;;;5.35;3.17;;;12.60;96.70;;;;;;4827453;29;20397;-75
2021/04/03 00:55:08;;;;;;;4.05;3.03;;;12.60;96.70;;;;;;4811320;29;20066;-75
2021/04/03 00:57:37;;;;;;;5.97;3.15;;;12.60;96.70;;;;;;4813652;29;20053;-76
2021/04/03 01:00:07;;;;;;;5.80;3.45;;;12.60;96.70;;;;;;4825473;29;20050;-76
2021/04/03 01:02:35;;;;;;;4.35;2.95;;;12.50;96.70;;;;;;4819870;29;20077;-76
2021/04/03 01:05:08;;;;;;;3.78;3.00;;;12.50;96.70;;;;;;4816134;29;20537;-75
2021/04/03 01:07:36;;;;;;;6.68;3.67;;;12.50;96.70;;;;;;4825965;29;20051;-76
2021/04/03 01:10:04;;;;;;;4.60;3.13;;;12.50;96.70;;;;;;4820407;29;20544;-76
2021/04/03 01:12:41;;;;;;;4.57;2.97;;;12.50;96.70;;;;;;4811785;29;20136;-76
2021/04/03 01:15:15;;;;;;;3.92;2.90;;;12.40;96.70;;;;;;4798975;29;20050;-76
2021/04/03 01:17:58;;;;;;;5.75;2.90;;;12.40;96.70;;;;;;4806874;29;20062;-75
2021/04/03 01:20:37;;;;;;;3.90;2.88;;;12.40;96.70;;;;;;4810388;29;20107;-76
2021/04/03 01:23:25;;;;;;;4.53;3.03;;;12.40;96.70;;;;;;4824689;29;20061;-76
2021/04/03 01:26:14;;;;;;;3.40;2.85;;;12.30;96.70;;;;;;4824283;29;20533;-76
2021/04/03 01:29:09;;;;;;;4.38;2.55;;;12.30;96.70;;;;;;4808720;29;20070;-76
2021/04/03 01:31:40;;;;;;;4.15;2.72;;;12.20;96.70;;;;;;4823572;29;20049;-76
2021/04/03 01:34:16;;;;;;;6.25;2.90;;;12.20;96.70;;;;;;4817537;29;20054;-76
2021/04/03 01:36:45;;;;;;;6.07;2.78;;;12.20;96.70;;;;;;4821736;29;20066;-75
2021/04/03 01:39:18;;;;;;;4.75;3.03;;;12.20;96.70;;;;;;4815115;29;20378;-76
2021/04/03 01:41:50;;;;;;;5.82;2.67;;;12.20;96.70;;;;;;4815242;29;20475;-76
2021/04/03 01:44:24;;;;;;;4.78;2.75;;;12.20;96.70;;;;;;4824316;29;20054;-75
2021/04/03 01:46:53;;;;;;;4.25;2.85;;;12.10;96.70;;;;;;4821523;29;20058;-76
2021/04/03 01:49:24;;;;;;;4.65;3.42;;;12.10;96.70;;;;;;4819496;29;20062;-75
2021/04/03 01:51:54;;;;;;;4.95;3.25;;;12.10;96.70;;;;;;4824644;29;20352;-76
2021/04/03 01:54:25;;;;;;;4.75;3.72;;;12.10;96.70;;;;;;4818031;29;20505;-76
2021/04/03 01:57:02;;;;;;;5.05;3.60;;;12.10;96.70;;;;;;4822348;29;20074;-75
2021/04/03 01:59:47;;;;;;;5.63;3.47;;;12.10;96.70;;;;;;4813386;29;20033;-75
2021/04/03 02:02:24;;;;;;;7.55;3.75;;;12.00;96.70;;;;;;4822128;29;20053;-75
2021/04/03 02:04:53;;;;;;;4.75;3.08;;;11.90;96.70;;;;;;4817096;29;20457;-75
2021/04/03 02:07:24;;;;;;;6.93;4.05;;;11.90;96.70;;;;;;4815244;29;20045;-75
2021/04/03 02:09:57;;;;;;;5.70;3.65;;;12.00;96.70;;;;;;4820799;29;20056;-76
2021/04/03 02:12:43;;;;;;;4.68;2.92;;;12.00;96.70;;;;;;4814476;29;20062;-75
2021/04/03 02:15:25;;;;;;;5.68;3.40;;;11.90;96.70;;;;;;4821378;29;20042;-75
2021/04/03 02:17:57;;;;;;;4.00;2.97;;;11.90;96.70;;;;;;4824261;29;20414;-75
2021/04/03 02:20:33;;;;;;;5.10;3.33;;;11.90;96.70;;;;;;4825228;29;20042;-75
2021/04/03 02:23:01;;;;;;;5.25;3.80;;;11.90;96.70;;;;;;4828382;29;20046;-75
2021/04/03 02:25:29;;;;;;;4.55;3.30;;;11.70;96.70;;;;;;4810763;29;20045;-76
2021/04/03 02:27:58;;;;;;;4.63;3.55;;;11.70;96.70;;;;;;4818068;29;20041;-75
2021/04/03 02:30:31;;;;;;;4.32;3.30;;;11.70;96.70;;;;;;4810735;29;20056;-76
2021/04/03 02:33:00;;;;;;;5.43;3.67;;;11.70;96.70;;;;;;4822038;29;20406;-73
2021/04/03 02:35:30;;;;;;;4.70;3.10;;;11.70;96.70;;;;;;4828157;29;20057;-75
2021/04/03 02:38:03;;;;;;;4.82;3.22;;;11.70;96.70;;;;;;4824222;29;20050;-74
2021/04/03 02:40:35;;;;;;;4.25;2.80;;;11.70;96.70;;;;;;4826123;29;20038;-74
2021/04/03 02:43:08;;;;;;;6.47;3.33;;;11.70;96.70;;;;;;4813698;29;20061;-74
2021/04/03 02:45:45;;;;;;;5.35;3.70;;;11.70;96.70;;;;;;4813451;29;20034;-74
2021/04/03 02:48:18;;;;;;;7.00;4.47;;;11.70;96.70;;;;;;4825045;29;20149;-74
2021/04/03 02:50:52;;;;;;;4.38;3.83;;;11.60;96.70;;;;;;4813461;29;20450;-74
2021/04/03 02:53:28;;;;;;;3.95;3.38;;;11.60;96.70;;;;;;4824943;29;20514;-74
2021/04/03 02:56:01;;;;;;;6.70;3.30;;;11.60;96.70;;;;;;4827360;29;20598;-74
2021/04/03 02:58:36;;;;;;;4.88;3.35;;;11.60;96.70;;;;;;4819282;29;20046;-74
2021/04/03 03:01:11;;;;;;;4.65;3.25;;;11.50;96.70;;;;;;4809415;29;20057;-74
2021/04/03 03:03:46;;;;;;;4.95;3.40;;;11.60;96.70;;;;;;4827455;29;20052;-74
2021/04/03 03:06:15;;;;;;;5.50;3.47;;;11.50;96.70;;;;;;4827597;29;20100;-74
2021/04/03 03:08:45;;;;;;;8.27;3.20;;;11.50;96.70;;;;;;4821799;29;20046;-74
2021/04/03 03:11:16;;;;;;;4.97;3.40;;;11.50;96.70;;;;;;4827255;29;20501;-74
2021/04/03 03:13:45;;;;;;;5.15;3.05;;;11.50;96.70;;;;;;4825397;29;20621;-75
2021/04/03 03:16:15;;;;;;;4.80;3.58;;;11.40;96.70;;;;;;4816162;29;20785;-74
2021/04/03 03:18:44;;;;;;;5.03;3.72;;;11.40;96.70;;;;;;4826118;29;20045;-75
2021/04/03 03:21:13;;;;;;;5.07;3.10;;;11.40;96.70;;;;;;4824308;29;20457;-74
2021/04/03 03:23:41;;;;;;;4.80;3.00;;;11.40;96.70;;;;;;4824596;29;20434;-75
2021/04/03 03:26:09;;;;;;;5.50;3.00;;;11.40;96.70;;;;;;4825768;29;20123;-74
2021/04/03 03:28:40;;;;;;;5.00;3.10;;;11.40;96.70;;;;;;4814739;29;20052;-75
2021/04/03 03:31:09;;;;;;;4.50;2.95;;;11.30;96.70;;;;;;4826132;29;20413;-74
2021/04/03 03:33:37;;;;;;;4.80;3.00;;;11.30;96.70;;;;;;4821404;29;20044;-75
2021/04/03 03:36:08;;;;;;;4.00;2.15;;;11.30;96.70;;;;;;4823325;29;20061;-74
2021/04/03 03:38:41;;;;;;;4.45;3.10;;;11.20;96.70;;;;;;4815473;29;20128;-74
2021/04/03 03:41:11;;;;;;;4.10;3.08;;;11.20;96.70;;;;;;4825843;29;20053;-75
2021/04/03 03:43:39;;;;;;;5.50;2.75;;;11.20;96.70;;;;;;4811828;29;20038;-74
2021/04/03 03:46:08;;;;;;;3.65;2.55;;;11.30;96.70;;;;;;4825203;29;20627;-75
2021/04/03 03:48:37;;;;;;;6.03;2.92;;;11.30;96.70;;;;;;4828058;29;20057;-75
2021/04/03 03:51:06;;;;;;;4.82;2.50;;;11.30;96.70;;;;;;4824568;29;20041;-75
2021/04/03 03:53:42;;;;;;;;;;;11.30;96.70;;;;;;4824099;29;20076;-74
2021/04/03 03:56:09;;;;;;;2.95;2.55;;;11.20;96.70;;;;;;4821469;29;20544;-75
2021/04/03 03:58:40;;;;;;;2.88;2.33;;;11.20;96.70;;;;;;4828042;29;20057;-75
2021/04/03 04:01:07;;;;;;;5.43;3.33;;;11.20;96.70;;;;;;4810524;29;20058;-74
2021/04/03 04:03:37;;;;;;;3.92;2.85;;;11.20;96.70;;;;;;4823683;29;20050;-75
2021/04/03 04:06:13;;;;;;;3.53;2.83;;;11.20;96.70;;;;;;4809470;29;20505;-74
2021/04/03 04:08:47;;;;;;;6.38;2.80;;;11.00;96.70;;;;;;4819108;29;20049;-74
2021/04/03 04:11:18;;;;;;;3.55;2.97;;;11.00;96.70;;;;;;4816059;29;20274;-74
2021/04/03 04:13:49;;;;;;;4.30;3.08;;;10.90;96.70;;;;;;4820149;29;20433;-75
2021/04/03 04:16:23;;;;;;;3.85;2.70;;;10.90;96.70;;;;;;4811297;29;20054;-74
2021/04/03 04:18:51;;;;;;;4.25;2.80;;;10.80;96.70;;;;;;4824461;29;20056;-75
2021/04/03 04:21:20;;;;;;;3.15;2.80;;;10.70;96.70;;;;;;4823358;29;20062;-75
2021/04/03 04:23:48;;;;;;;6.35;3.05;;;10.70;96.70;;;;;;4817082;29;20170;-74
2021/04/03 04:26:16;;;;;;;3.10;2.50;;;10.70;96.70;;;;;;4823501;29;20066;-75
2021/04/03 04:28:48;;;;;;;4.30;2.97;;;10.80;96.70;;;;;;4828002;29;20042;-75
2021/04/03 04:31:20;;;;;;;6.55;3.15;;;10.70;96.70;;;;;;4825137;29;20484;-74
2021/04/03 04:33:54;;;;;;;7.90;3.08;;;10.80;96.70;;;;;;4822461;29;20049;-74
2021/04/03 04:36:22;;;;;;;4.72;3.25;;;10.80;96.70;;;;;;4799173;29;20054;-74
2021/04/03 04:38:50;;;;;;;5.68;3.20;;;10.70;96.70;;;;;;4826883;29;20444;-75
2021/04/03 04:41:20;;;;;;;5.30;3.08;;;10.70;96.70;;;;;;4826897;29;20114;-75
2021/04/03 04:43:50;;;;;;;5.00;3.05;;;10.70;96.70;;;;;;4821600;29;20042;-74
2021/04/03 04:46:18;;;;;;;5.32;3.55;;;10.70;96.70;;;;;;4813522;29;20515;-74
2021/04/03 04:48:52;;;;;;;4.25;3.33;;;10.70;96.70;;;;;;4827746;29;20053;-74
2021/04/03 04:51:25;;;;;;;5.82;3.67;;;10.80;96.70;;;;;;4828431;29;20058;-74
2021/04/03 04:54:00;;;;;;;5.40;3.30;;;10.70;96.70;;;;;;4809138;29;20058;-74
2021/04/03 04:56:32;;;;;;;6.20;3.75;;;10.70;96.70;;;;;;4829893;29;20052;-74
2021/04/03 04:59:00;;;;;;;5.45;4.50;;;10.60;96.70;;;;;;4826713;29;20076;-74
2021/04/03 05:01:33;;;;;;;9.35;5.78;;;10.60;96.70;;;;;;4824364;29;20478;-74
2021/04/03 05:04:01;;;;;;;8.82;5.93;;;10.50;96.70;;;;;;4819175;29;20053;-74
2021/04/03 05:06:30;;;;;;;7.93;4.60;;;10.40;96.70;;;;;;4826340;29;20446;-74
2021/04/03 05:08:57;;;;;;;7.30;3.72;;;10.50;96.70;;;;;;4821040;29;20046;-74
2021/04/03 05:11:24;;;;;;;5.40;4.03;;;10.40;96.70;;;;;;4824629;29;20083;-74
2021/04/03 05:13:52;;;;;;;8.10;3.75;;;10.50;96.70;;;;;;4816693;29;20134;-74
2021/04/03 05:16:19;;;;;;;7.53;3.80;;;10.50;96.70;;;;;;4827647;29;20069;-74
2021/04/03 05:18:47;;;;;;;5.72;4.18;;;10.40;96.70;;;;;;4829152;29;20054;-74
2021/04/03 05:21:14;;;;;;;5.57;4.43;;;10.40;96.70;;;;;;4819960;29;20505;-73
2021/04/03 05:23:43;;;;;;;8.68;5.95;;;10.40;96.70;;;;;;4819536;29;20450;-73
2021/04/03 05:26:10;;;;;;;6.32;4.25;;;10.30;96.70;;;;;;4804770;29;20091;-74
2021/04/03 05:28:37;;;;;;;6.57;3.83;;;10.30;96.70;;;;;;4809344;29;20140;-73
2021/04/03 05:31:05;;;;;;;4.00;3.28;;;10.30;96.70;;;;;;4817286;29;20073;-74
2021/04/03 05:33:32;;;;;;;4.85;3.10;;;10.30;96.70;;;;;;4810176;29;20380;-74
2021/04/03 05:36:01;;;;;;;5.95;3.17;;;10.30;96.70;;;;;;4825525;29;20049;-75
2021/04/03 05:38:28;;;;;;;4.75;3.17;;;10.40;96.70;;;;;;4823269;29;20076;-74
2021/04/03 05:40:57;;;;;;;6.00;3.00;;;10.50;96.70;;;;;;4827597;29;20041;-74
2021/04/03 05:43:26;;;;;;;7.70;3.60;;;10.50;96.70;;;;;;4825206;29;20050;-74
2021/04/03 05:45:57;;;;;;;6.95;3.22;;;10.50;96.70;;;;;;4820660;29;20031;-74
2021/04/03 05:48:25;;;;;;;4.30;3.03;;;10.50;96.70;;;;;;4808758;29;20427;-74
2021/04/03 05:50:54;;;;;;;4.13;3.13;;;10.60;96.70;;;;;;4831721;29;20440;-74
2021/04/03 05:53:22;;;;;;;4.90;3.28;;;10.70;96.70;;;;;;4827042;29;20459;-74
2021/04/03 05:55:52;;;;;;;4.47;3.08;;;10.70;96.70;;;;;;4828554;29;20038;-73
2021/04/03 05:58:20;;;;;;;5.80;3.22;;;10.70;96.70;;;;;;4808918;29;20046;-74
2021/04/03 06:00:50;;;;;;;4.28;3.33;;;10.70;96.70;;;;;;4824613;29;20611;-74
2021/04/03 06:03:18;;;;;;;5.05;3.58;;;10.80;96.70;;;;;;4823126;29;20062;-75
2021/04/03 06:05:47;;;;;;;4.00;3.13;;;10.80;96.70;;;;;;4829970;29;20034;-73
2021/04/03 06:08:15;;;;;;;11.45;4.13;;;10.80;96.70;;;;;;4820230;29;20046;-74
2021/04/03 06:11:02;;;;;;;5.65;3.28;;;10.90;96.70;;;;;;4824883;29;20046;-75
2021/04/03 06:13:31;;;;;;;4.97;3.70;;;11.10;96.70;;;;;;4829936;29;20042;-75
2021/04/03 06:15:59;;;;;;;5.03;3.83;;;11.20;96.70;;;;;;4820846;29;20042;-74
2021/04/03 06:18:26;;;;;;;5.75;3.38;;;11.20;96.70;;;;;;4816793;29;20048;-75
2021/04/03 06:21:07;;;;;;;6.30;3.50;;;11.30;96.70;;;;;;4824789;29;20110;-74
2021/04/03 06:23:35;;;;;;;6.80;3.72;;;11.40;96.70;;;;;;4824911;29;20066;-74
2021/04/03 06:26:03;;;;;;;4.80;3.50;;;11.50;96.70;;;;;;4808988;29;20035;-74
2021/04/03 06:28:33;;;;;;;5.13;3.90;;;11.50;96.70;;;;;;4816745;29;20049;-74
2021/04/03 06:31:13;;;;;;;7.15;4.85;;;11.60;96.70;;;;;;4817126;29;20381;-75
2021/04/03 06:33:41;;;;;;;7.88;5.70;;;11.60;96.70;;;;;;4813177;29;20453;-76
2021/04/03 06:36:11;;;;;;;13.70;8.05;;;11.70;96.70;;;;;;4825315;29;20046;-76
2021/04/03 06:38:40;;;;;;;13.27;7.78;;;11.80;96.70;;;;;;4819347;29;20575;-74
2021/04/03 06:41:25;;;;;;;7.18;5.47;;;11.80;96.70;;;;;;4822301;29;20073;-74
2021/04/03 06:44:09;;;;;;;7.30;4.72;;;11.90;96.70;;;;;;4825528;29;20057;-74
2021/04/03 06:46:40;;;;;;;8.90;5.55;;;12.10;96.70;;;;;;4819231;29;20106;-74
2021/04/03 06:49:09;;;;;;;6.88;4.47;;;12.10;96.70;;;;;;4822916;29;20070;-73
2021/04/03 06:54:43;;;;;;;7.80;5.20;;;12.20;96.70;;;;;;5053326;24;20093;-72
2021/04/03 06:57:10;;;;;;;8.20;5.47;;;12.30;96.70;;;;;;4835339;29;20149;-73
2021/04/03 06:59:39;;;;;;;11.18;6.53;;;12.40;96.70;;;;;;4848298;29;20053;-71
2021/04/03 07:02:09;;;;;;;13.25;8.32;;;12.50;96.70;;;;;;4854897;29;20057;-73
2021/04/03 07:04:43;;;;;;;13.70;10.18;;;12.50;96.70;;;;;;4850942;29;20056;-74
2021/04/03 07:07:11;;;;;;;19.73;13.13;;;12.60;96.70;;;;;;4852092;29;20487;-74
2021/04/03 07:09:39;;;;;;;12.30;9.27;;;12.80;96.70;;;;;;4849378;29;20056;-73
2021/04/03 07:12:11;;;;;;;9.15;6.72;;;13.00;96.70;;;;;;4852613;29;20132;-78
2021/04/03 07:14:41;;;;;;;19.30;12.93;;;13.10;96.70;;;;;;4852450;29;20512;-75
2021/04/03 07:17:09;;;;;;;15.57;12.30;;;13.30;96.70;;;;;;4851325;29;20044;-74
2021/04/03 07:19:37;;;;;;;12.35;8.88;;;13.60;96.70;;;;;;4839562;29;20049;-73
2021/04/03 07:22:05;;;;;;;13.65;9.75;;;13.70;96.70;;;;;;4854256;29;20465;-74
2021/04/03 07:24:35;;;;;;;11.75;8.65;;;13.80;96.70;;;;;;4819335;29;20150;-73
2021/04/03 07:27:03;;;;;;;10.90;8.70;;;13.90;96.70;;;;;;4849330;29;20050;-75
2021/04/03 07:29:48;;;;;;;8.88;6.78;;;14.00;96.70;;;;;;4845958;29;20053;-79
2021/04/03 07:32:38;;;;;;;8.43;7.50;;;14.00;96.70;;;;;;4852304;29;20575;-74
2021/04/03 07:35:17;;;;;;;10.73;6.15;;;14.00;96.70;;;;;;4842663;29;20053;-74
2021/04/03 07:37:47;;;;;;;9.40;6.30;;;14.00;96.70;;;;;;4854302;29;20522;-74
2021/04/03 07:40:30;;;;;;;9.23;5.57;;;14.10;96.70;;;;;;4857951;29;20143;-74
2021/04/03 07:42:58;;;;;;;9.55;6.05;;;14.10;96.70;;;;;;4857681;29;20041;-74
2021/04/03 07:45:47;;;;;;;8.93;5.82;;;14.30;96.70;;;;;;4851963;29;20094;-74
2021/04/03 07:48:43;;;;;;;8.63;5.88;;;14.30;96.70;;;;;;4833777;29;20299;-74
2021/04/03 07:54:32;;;;;;;6.97;4.65;;;14.60;96.70;;;;;;4795762;29;20195;-75
2021/04/03 07:57:07;;;;;;;9.70;6.13;;;14.90;96.70;;;;;;4788746;29;20788;-74
2021/04/03 07:59:51;;;;;;;13.75;6.63;;;15.10;96.70;;;;;;4795135;29;20670;-75
2021/04/03 08:02:22;;;;;;;16.65;6.97;;;15.20;96.70;;;;;;4775603;29;20043;-75
2021/04/03 08:04:50;;;;;;;9.23;6.53;;;15.20;96.70;;;;;;4787870;29;20075;-75
2021/04/03 08:07:20;;;;;;;8.85;5.20;;;15.30;96.70;;;;;;4792539;29;20043;-76
2021/04/03 08:09:48;;;;;;;8.68;5.63;;;15.30;96.70;;;;;;4793056;29;20055;-75
2021/04/03 08:12:15;;;;;;;8.88;5.80;;;15.30;96.70;;;;;;4777180;29;20374;-75
2021/04/03 08:14:44;;;;;;;10.93;5.97;;;15.30;96.70;;;;;;4796515;29;20577;-75
2021/04/03 08:17:22;;;;;;;8.05;6.47;;;15.50;96.70;;;;;;4791280;29;20417;-75
2021/04/03 08:19:50;;;;;;;9.75;6.47;;;15.50;96.70;;;;;;4775938;29;20125;-74
2021/04/03 08:22:18;;;;;;;10.93;7.68;;;15.60;96.70;;;;;;4777594;29;20540;-75
2021/04/03 08:24:56;;;;;;;10.32;7.30;;;15.70;96.70;;;;;;4784872;29;20062;-74
2021/04/03 08:27:35;;;;;;;10.57;7.32;;;15.70;96.70;;;;;;4778646;29;20062;-74
2021/04/03 08:30:20;;;;;;;12.52;7.35;;;16.00;96.70;;;;;;4783858;29;20399;-76
2021/04/03 08:33:13;;;;;;;9.65;7.25;;;16.10;96.70;;;;;;4796619;29;20459;-74
2021/04/03 08:35:43;;;;;;;10.20;6.88;;;16.30;96.70;;;;;;4785334;29;20426;-74
2021/04/03 08:38:13;;;;;;;13.25;7.93;;;16.30;96.70;;;;;;4784036;29;20044;-75
2021/04/03 08:40:41;;;;;;;13.35;8.48;;;16.40;96.70;;;;;;4782232;29;20050;-74
2021/04/03 08:43:15;;;;;;;11.75;7.57;;;16.50;96.70;;;;;;4781341;29;20513;-74
2021/04/03 08:45:43;;;;;;;73.30;53.00;;;16.60;96.70;;;;;;4790859;29;20346;-74
2021/04/03 08:48:11;;;;;;;35.33;25.83;;;16.60;96.60;;;;;;4793316;29;20046;-74
2021/04/03 08:50:41;;;;;;;13.35;8.88;;;16.60;96.60;;;;;;4776263;29;20076;-73
2021/04/03 08:53:09;;;;;;;16.23;10.95;;;16.70;96.50;;;;;;4778212;29;20066;-76
2021/04/03 08:55:37;;;;;;;10.70;7.75;;;16.70;96.40;;;;;;4779256;29;21025;-74
2021/04/03 08:58:05;;;;;;;19.13;11.25;;;16.80;96.40;;;;;;4790857;29;20039;-74
2021/04/03 09:00:33;;;;;;;15.40;10.93;;;17.00;96.40;;;;;;4775793;29;20066;-74
2021/04/03 09:03:01;;;;;;;11.77;8.82;;;17.00;96.10;;;;;;4787357;29;20059;-74
2021/04/03 09:05:29;;;;;;;12.48;8.75;;;17.00;96.10;;;;;;4788819;29;20541;-76
2021/04/03 09:07:58;;;;;;;11.50;8.20;;;17.00;96.00;;;;;;4776902;29;20047;-76
2021/04/03 09:10:26;;;;;;;13.40;7.75;;;17.10;95.30;;;;;;4774973;29;20398;-74
2021/04/03 09:12:54;;;;;;;9.02;7.03;;;17.20;95.20;;;;;;4776083;29;20039;-74
2021/04/03 09:15:29;;;;;;;12.30;6.80;;;17.30;95.40;;;;;;4777415;29;20417;-74
2021/04/03 09:17:57;;;;;;;13.18;6.90;;;17.30;95.50;;;;;;4790637;29;20048;-75
2021/04/03 09:20:26;;;;;;;11.90;7.15;;;17.40;95.20;;;;;;4794793;29;20063;-73
2021/04/03 09:23:02;;;;;;;9.43;5.88;;;17.40;95.30;;;;;;4787488;29;20044;-74
2021/04/03 09:25:31;;;;;;;8.90;6.32;;;17.40;94.90;;;;;;4781386;29;20042;-74
2021/04/03 09:28:05;;;;;;;9.77;5.80;;;17.40;94.90;;;;;;4780513;29;20100;-73
2021/04/03 09:30:35;;;;;;;8.60;5.65;;;17.40;94.80;;;;;;4780623;29;20086;-74
2021/04/03 09:33:17;;;;;;;9.38;6.00;;;17.50;94.60;;;;;;4787072;29;20095;-73
2021/04/03 09:35:45;;;;;;;10.93;5.57;;;17.60;94.00;;;;;;4785053;29;20409;-73
2021/04/03 09:38:13;;;;;;;12.57;6.20;;;17.60;93.90;;;;;;4777607;29;20043;-73
2021/04/03 09:40:44;;;;;;;10.60;4.95;;;17.70;94.10;;;;;;4797278;29;20104;-74
2021/04/03 09:43:13;;;;;;;10.75;4.25;;;17.80;93.70;;;;;;4795764;29;20052;-74
2021/04/03 09:45:44;;;;;;;10.10;4.85;;;17.80;93.20;;;;;;4778266;29;20047;-75
2021/04/03 09:48:11;;;;;;;9.05;5.35;;;17.90;93.20;;;;;;4778612;29;20052;-74
2021/04/03 09:50:40;;;;;;;11.30;5.82;;;17.90;93.10;;;;;;4802270;29;20413;-74
2021/04/03 09:53:09;;;;;;;10.40;5.20;;;17.90;93.00;;;;;;4797917;29;20471;-75
2021/04/03 09:55:38;;;;;;;8.40;4.90;;;18.00;92.90;;;;;;4796637;29;20452;-74
2021/04/03 09:58:06;;;;;;;6.32;4.65;;;18.00;92.80;;;;;;4779337;29;20126;-75
2021/04/03 10:00:34;;;;;;;11.23;5.15;;;18.10;92.70;;;;;;4791615;29;20057;-79
2021/04/03 10:03:03;;;;;;;12.93;6.00;;;18.20;92.60;;;;;;4796548;29;20047;-75
2021/04/03 10:05:31;;;;;;;10.68;4.90;;;18.30;92.80;;;;;;4787608;29;20130;-76
2021/04/03 10:07:58;;;;;;;6.78;4.90;;;18.40;92.90;;;;;;4781106;29;20046;-75
2021/04/03 10:10:26;;;;;;;10.95;5.25;;;18.50;92.20;;;;;;4791775;29;20182;-74
2021/04/03 10:12:56;;;;;;;6.50;4.80;;;18.70;92.10;;;;;;4779464;29;20035;-74
2021/04/03 10:15:26;;;;;;;7.70;4.43;;;18.90;91.90;;;;;;4775196;29;20047;-73
2021/04/03 10:17:53;;;;;;;6.60;4.57;;;19.10;91.30;;;;;;4777487;29;20047;-73
2021/04/03 10:20:21;;;;;;;8.77;4.60;;;19.10;91.60;;;;;;4775680;29;20047;-75
2021/04/03 10:22:49;;;;;;;5.63;4.60;;;19.10;91.60;;;;;;4780909;29;20054;-74
2021/04/03 10:25:16;;;;;;;5.47;4.63;;;19.30;91.00;;;;;;4793499;29;20050;-74
2021/04/03 10:27:44;;;;;;;4.95;4.45;;;19.30;90.40;;;;;;4781524;29;20099;-74
2021/04/03 10:30:12;;;;;;;8.00;4.63;;;19.20;90.60;;;;;;4792339;29;20044;-74
2021/04/03 10:32:41;;;;;;;7.22;4.35;;;19.30;90.20;;;;;;4775625;29;20093;-74
2021/04/03 10:35:10;;;;;;;5.97;4.50;;;19.40;90.50;;;;;;4777641;29;20047;-74
2021/04/03 10:37:38;;;;;;;6.93;4.38;;;19.40;90.50;;;;;;4789886;29;20051;-75
2021/04/03 10:40:07;;;;;;;5.47;4.22;;;19.40;90.20;;;;;;4781786;29;20040;-76
2021/04/03 10:42:35;;;;;;;5.68;4.28;;;19.40;89.70;;;;;;4792607;29;20120;-74
2021/04/03 10:45:03;;;;;;;7.15;4.25;;;19.60;90.50;;;;;;4797110;29;20418;-77
2021/04/03 10:47:31;;;;;;;6.32;3.70;;;19.60;90.30;;;;;;4783808;29;20051;-74
2021/04/03 10:50:01;;;;;;;5.63;4.18;;;19.60;90.30;;;;;;4783646;29;20032;-75
2021/04/03 10:52:28;;;;;;;5.93;3.97;;;19.60;90.00;;;;;;4780741;29;20059;-75
2021/04/03 10:54:56;;;;;;;8.90;3.92;;;19.60;89.60;;;;;;4782353;29;20228;-76
2021/04/03 10:57:23;;;;;;;6.25;3.40;;;19.60;88.80;;;;;;4793625;29;20036;-76
2021/04/03 10:59:52;;;;;;;5.82;3.80;;;19.90;89.70;;;;;;4784045;29;20510;-74
2021/04/03 11:02:21;;;;;;;5.45;3.55;;;20.20;88.50;;;;;;4793826;29;20063;-74
2021/04/03 11:04:48;;;;;;;7.70;3.10;;;20.40;89.70;;;;;;4779155;29;20331;-76
2021/04/03 11:07:17;;;;;;;5.50;3.33;;;20.50;88.10;;;;;;4796891;29;20058;-74
2021/04/03 11:09:44;;;;;;;4.53;3.45;;;20.60;87.80;;;;;;4778251;29;20525;-74
2021/04/03 11:12:13;;;;;;;5.07;3.65;;;20.70;87.30;;;;;;4780202;29;20062;-74
2021/04/03 11:14:41;;;;;;;4.35;3.10;;;20.70;85.60;;;;;;4778405;29;20112;-75
2021/04/03 11:17:09;;;;;;;4.68;3.13;;;20.50;85.80;;;;;;4793743;29;20178;-74
2021/04/03 11:19:36;;;;;;;5.97;3.53;;;20.60;87.10;;;;;;4797206;29;20078;-74
2021/04/03 11:22:04;;;;;;;10.30;4.20;;;20.70;86.20;;;;;;4781697;29;20047;-74
2021/04/03 11:24:34;;;;;;;6.15;3.47;;;20.70;87.00;;;;;;4799939;29;20039;-73
2021/04/03 11:27:01;;;;;;;5.10;3.53;;;20.70;86.00;;;;;;4782857;29;20307;-73
2021/04/03 11:29:44;;;;;;;10.07;3.95;;;20.70;87.30;;;;;;4793169;29;20289;-82
2021/04/03 11:32:12;;;;;;;4.18;3.40;;;20.60;85.10;;;;;;4774342;29;20052;-76
2021/04/03 11:34:40;;;;;;;8.68;3.58;;;20.70;85.40;;;;;;4795501;29;20054;-76
2021/04/03 11:37:07;;;;;;;6.00;2.97;;;20.90;85.10;;;;;;4782237;29;20047;-76
2021/04/03 11:39:36;;;;;;;8.13;3.33;;;21.00;84.60;;;;;;4775398;29;20496;-76
2021/04/03 11:42:06;;;;;;;3.90;3.30;;;21.20;84.90;;;;;;4791710;29;20035;-76
2021/04/03 11:44:33;;;;;;;4.65;3.30;;;21.30;84.40;;;;;;4780666;29;20055;-76
2021/04/03 11:47:01;;;;;;;7.90;4.00;;;21.40;83.30;;;;;;4792043;29;20063;-76
2021/04/03 11:49:29;;;;;;;5.22;3.45;;;21.10;84.20;;;;;;4774210;29;20101;-76
2021/04/03 11:52:49;;;;;;;5.20;3.30;;;20.90;84.80;;;;;;4795627;29;20640;-75
2021/04/03 11:55:17;;;;;;;5.70;3.17;;;20.80;84.60;;;;;;4779628;29;20522;-74
2021/04/03 11:57:45;;;;;;;5.85;3.03;;;20.90;84.70;;;;;;4797952;29;20756;-75
2021/04/03 12:00:14;;;;;;;5.75;3.67;;;20.90;84.50;;;;;;4783001;29;20050;-74
2021/04/03 12:02:41;;;;;;;5.32;3.22;;;20.80;84.70;;;;;;4795010;29;20582;-75
2021/04/03 12:05:09;;;;;;;11.48;3.75;;;20.80;84.20;;;;;;4795601;29;20083;-74
2021/04/03 12:07:38;;;;;;;5.47;3.20;;;20.70;84.50;;;;;;4787078;29;21003;-75
2021/04/03 12:10:07;;;;;;;4.57;3.00;;;20.60;84.70;;;;;;4786810;29;20053;-75
2021/04/03 12:12:38;;;;;;;5.38;3.22;;;20.50;85.00;;;;;;4791395;29;20061;-75
2021/04/03 12:15:07;;;;;;;4.90;3.40;;;20.40;85.30;;;;;;4774128;29;20078;-76
2021/04/03 12:17:35;;;;;;;9.57;3.30;;;20.60;85.40;;;;;;4775655;29;20193;-75
2021/04/03 12:20:04;;;;;;;4.82;2.88;;;20.60;84.90;;;;;;4783314;29;20134;-75
2021/04/03 12:22:31;;;;;;;5.10;3.22;;;20.50;85.50;;;;;;4777783;29;20059;-75
2021/04/03 12:24:58;;;;;;;3.97;3.30;;;20.50;85.00;;;;;;4773326;29;20292;-81
2021/04/03 12:27:26;;;;;;;8.32;4.13;;;20.70;84.20;;;;;;4775249;29;20050;-75
2021/04/03 12:29:54;;;;;;;3.45;3.15;;;20.90;83.80;;;;;;4789049;29;20039;-76
2021/04/03 12:32:21;;;;;;;3.63;2.85;;;21.00;83.30;;;;;;4773566;29;20044;-77
2021/04/03 12:34:49;;;;;;;4.10;3.67;;;21.10;83.60;;;;;;4790730;29;20065;-76
2021/04/03 12:37:18;;;;;;;3.42;3.08;;;21.20;83.90;;;;;;4786566;29;20154;-74
2021/04/03 12:39:45;;;;;;;4.15;3.20;;;21.60;83.20;;;;;;4776080;29;20556;-74
2021/04/03 12:42:13;;;;;;;7.05;3.28;;;21.70;82.10;;;;;;4788871;29;20463;-74
2021/04/03 12:44:40;;;;;;;4.28;3.20;;;21.90;82.20;;;;;;4793709;29;20099;-73
2021/04/03 12:47:09;;;;;;;9.30;3.10;;;21.80;82.00;;;;;;4792019;29;20138;-75
2021/04/03 12:49:36;;;;;;;6.32;3.25;;;21.90;81.90;;;;;;4784623;29;20047;-76
2021/04/03 12:52:05;;;;;;;5.35;3.45;;;22.00;81.40;;;;;;4784239;29;20051;-75
2021/04/03 12:54:32;;;;;;;6.03;3.28;;;21.90;81.70;;;;;;4780202;29;20514;-76
2021/04/03 12:57:00;;;;;;;7.00;3.20;;;22.00;81.40;;;;;;4762598;29;20802;-76
2021/04/03 12:59:27;;;;;;;4.22;3.22;;;22.00;80.30;;;;;;4767755;29;20043;-76
2021/04/03 13:01:55;;;;;;;2.72;2.50;;;22.00;79.70;;;;;;4777513;29;20070;-76
2021/04/03 13:04:23;;;;;;;2.83;2.53;;;22.10;80.10;;;;;;4778375;29;20053;-76
2021/04/03 13:06:51;;;;;;;4.60;3.03;;;22.30;79.80;;;;;;4779036;29;20047;-77
2021/04/03 13:09:19;;;;;;;6.55;2.88;;;22.30;79.00;;;;;;4775120;29;20422;-75
2021/04/03 13:11:46;;;;;;;6.30;2.90;;;22.30;78.80;;;;;;4788259;29;20456;-76